Time;durP1;ratioP1;P1;durP2;ratioP2;P2;SDS_P1;SDS_P2;PMS_P1;PMS_P2;Temp;Humidity;BMP_temperature;BMP_pressure;BME280_temperature;BME280_humidity;BME280_pressure;Samples;Min_cycle;Max_cycle;Signal;HPM_P1;HPM_P2
2023/07/19 00:02:17;;;;;;;;;;;;;;;28.60;43.42;99417.59;5052952;28;19915;-77
2023/07/19 00:04:42;;;;;;;;;;;;;;;28.58;43.29;99414.38;5053109;28;19924;-78
2023/07/19 00:07:07;;;;;;;;;;;;;;;28.61;43.40;99417.28;5052984;28;20271;-77
2023/07/19 00:09:32;;;;;;;;;;;;;;;28.63;43.48;99423.22;5052996;28;19908;-78
2023/07/19 00:11:57;;;;;;;;;;;;;;;28.68;43.44;99420.41;5053073;28;19916;-77
2023/07/19 00:14:23;;;;;;;;;;;;;;;28.69;43.35;99423.94;5035009;28;19962;-78
2023/07/19 00:16:48;;;;;;;;;;;;;;;28.62;43.59;99426.25;5053021;28;19948;-78
2023/07/19 00:19:13;;;;;;;;;;;;;;;28.58;43.55;99408.94;5052804;28;19915;-79
2023/07/19 00:21:38;;;;;;;;;;;;;;;28.55;43.83;99414.97;5035131;28;20285;-77
2023/07/19 00:24:04;;;;;;;;;;;;;;;28.51;44.04;99413.97;5052833;28;19916;-79
2023/07/19 00:26:29;;;;;;;;;;;;;;;28.40;44.99;99411.41;5034589;28;19967;-78
2023/07/19 00:28:55;;;;;;;;;;;;;;;28.34;44.25;99406.38;5034819;28;19952;-78
2023/07/19 00:31:20;;;;;;;;;;;;;;;28.34;45.03;99409.09;5053226;28;20006;-78
2023/07/19 00:33:45;;;;;;;;;;;;;;;28.29;44.68;99398.31;5052691;28;19912;-78
2023/07/19 00:36:11;;;;;;;;;;;;;;;28.24;45.53;99401.09;5052287;28;19909;-77
2023/07/19 00:38:36;;;;;;;;;;;;;;;28.27;45.31;99404.06;5052384;28;19916;-79
2023/07/19 00:41:01;;;;;;;;;;;;;;;28.29;45.38;99411.91;5052468;28;19995;-79
2023/07/19 00:43:27;;;;;;;;;;;;;;;28.18;45.21;99405.78;5034550;28;19981;-77
2023/07/19 00:45:53;;;;;;;;;;;;;;;28.12;46.91;99399.63;5051964;28;19955;-78
2023/07/19 00:48:18;;;;;;;;;;;;;;;28.06;46.82;99403.53;5034351;28;19909;-78
2023/07/19 00:50:44;;;;;;;;;;;;;;;28.04;46.08;99404.94;5052399;28;20301;-78
2023/07/19 00:53:11;;;;;;;;;;;;;;;28.05;46.31;99412.78;5052249;28;19905;-79
2023/07/19 00:55:36;;;;;;;;;;;;;;;27.96;47.12;99417.25;5052316;28;19920;-78
2023/07/19 00:58:02;;;;;;;;;;;;;;;27.90;46.26;99414.91;5052219;28;19916;-79
2023/07/19 01:00:28;;;;;;;;;;;;;;;27.80;46.27;99413.97;5052091;28;20365;-78
2023/07/19 01:02:54;;;;;;;;;;;;;;;27.81;46.08;99412.06;5052218;28;19938;-79
2023/07/19 01:05:19;;;;;;;;;;;;;;;27.77;45.85;99411.03;5051948;28;19985;-76
2023/07/19 01:07:44;;;;;;;;;;;;;;;27.77;46.82;99416.47;5051761;28;19916;-78
2023/07/19 01:10:10;;;;;;;;;;;;;;;27.70;46.88;99416.84;5050883;28;19909;-78
2023/07/19 01:12:35;;;;;;;;;;;;;;;27.66;46.33;99410.41;5051820;28;20321;-78
2023/07/19 01:15:02;;;;;;;;;;;;;;;27.61;46.55;99417.81;5051876;28;19909;-78
2023/07/19 01:17:27;;;;;;;;;;;;;;;27.60;47.45;99418.88;5051815;28;19908;-78
2023/07/19 01:19:52;;;;;;;;;;;;;;;27.57;47.54;99419.44;5033722;28;19916;-78
2023/07/19 01:22:18;;;;;;;;;;;;;;;27.53;47.66;99414.63;5051390;28;19908;-78
2023/07/19 01:24:43;;;;;;;;;;;;;;;27.54;47.34;99405.38;5051545;28;19916;-78
2023/07/19 01:27:08;;;;;;;;;;;;;;;27.54;47.83;99401.84;5051844;28;19912;-78
2023/07/19 01:29:34;;;;;;;;;;;;;;;27.51;47.46;99402.44;5051671;28;19966;-78
2023/07/19 01:31:59;;;;;;;;;;;;;;;27.44;47.53;99402.78;5051604;28;19932;-76
2023/07/19 01:34:24;;;;;;;;;;;;;;;27.34;49.24;99394.78;5051447;28;19912;-78
2023/07/19 01:36:50;;;;;;;;;;;;;;;27.27;48.72;99396.25;5033614;28;19908;-76
2023/07/19 01:39:15;;;;;;;;;;;;;;;27.26;48.70;99400.84;5051484;28;19905;-77
2023/07/19 01:41:40;;;;;;;;;;;;;;;27.20;47.85;99408.25;5033677;28;19956;-78
2023/07/19 01:44:05;;;;;;;;;;;;;;;27.21;49.28;99411.78;5051421;28;19962;-79
2023/07/19 01:46:31;;;;;;;;;;;;;;;27.21;49.42;99415.28;5052340;28;19916;-77
2023/07/19 01:48:56;;;;;;;;;;;;;;;27.22;49.72;99411.47;5057604;28;19919;-76
2023/07/19 01:51:21;;;;;;;;;;;;;;;27.20;49.60;99413.66;5037435;28;19915;-77
2023/07/19 01:53:47;;;;;;;;;;;;;;;27.14;49.45;99414.84;5051396;28;19909;-80
2023/07/19 01:56:12;;;;;;;;;;;;;;;27.10;49.80;99424.66;5051328;28;20007;-80
2023/07/19 01:58:37;;;;;;;;;;;;;;;27.05;50.28;99413.88;5050925;28;19946;-78
2023/07/19 02:01:02;;;;;;;;;;;;;;;26.99;49.41;99416.91;5033228;28;19999;-79
2023/07/19 02:03:28;;;;;;;;;;;;;;;26.97;49.44;99416.38;5051057;28;19909;-78
2023/07/19 02:05:57;;;;;;;;;;;;;;;26.92;48.79;99419.94;5033416;28;19935;-76
2023/07/19 02:08:22;;;;;;;;;;;;;;;26.92;49.57;99417.25;5051697;28;19909;-78
2023/07/19 02:10:47;;;;;;;;;;;;;;;26.89;49.42;99409.69;5034802;28;19909;-78
2023/07/19 02:13:12;;;;;;;;;;;;;;;26.95;48.50;99413.94;5058529;28;20381;-77
2023/07/19 02:15:38;;;;;;;;;;;;;;;27.01;49.20;99410.13;5054090;28;19915;-76
2023/07/19 02:18:03;;;;;;;;;;;;;;;27.04;48.29;99401.41;5051601;28;19904;-78
2023/07/19 02:20:28;;;;;;;;;;;;;;;27.09;48.30;99414.91;5051237;28;20397;-76
2023/07/19 02:22:53;;;;;;;;;;;;;;;27.10;49.42;99418.41;5053943;28;19985;-77
2023/07/19 02:25:19;;;;;;;;;;;;;;;27.15;48.46;99411.03;5054950;28;19912;-77
2023/07/19 02:27:44;;;;;;;;;;;;;;;27.17;48.54;99414.25;5055056;28;19962;-78
2023/07/19 02:30:09;;;;;;;;;;;;;;;27.21;48.30;99415.28;5055009;28;19978;-79
2023/07/19 02:32:35;;;;;;;;;;;;;;;27.18;49.00;99421.28;5054700;28;19913;-78
2023/07/19 02:35:01;;;;;;;;;;;;;;;27.19;48.53;99422.09;5054693;28;19908;-78
2023/07/19 02:37:26;;;;;;;;;;;;;;;27.17;48.69;99421.56;5036784;28;19916;-78
2023/07/19 02:39:51;;;;;;;;;;;;;;;27.11;47.44;99420.03;5054629;28;20392;-78
2023/07/19 02:42:17;;;;;;;;;;;;;;;27.09;48.81;99425.75;5036661;28;19916;-78
2023/07/19 02:44:42;;;;;;;;;;;;;;;27.11;48.66;99426.25;5054463;28;20401;-78
2023/07/19 02:47:07;;;;;;;;;;;;;;;27.07;48.83;99421.69;5054308;28;19970;-78
2023/07/19 02:49:33;;;;;;;;;;;;;;;27.02;48.91;99416.34;5054356;28;19912;-78
2023/07/19 02:51:58;;;;;;;;;;;;;;;27.01;48.86;99412.03;5054328;28;19916;-78
2023/07/19 02:54:23;;;;;;;;;;;;;;;27.01;49.28;99420.16;5036509;28;19908;-79
2023/07/19 02:56:49;;;;;;;;;;;;;;;26.98;47.98;99418.03;5054208;28;19959;-78
2023/07/19 02:59:14;;;;;;;;;;;;;;;26.88;48.28;99419.72;5054375;28;19970;-78
2023/07/19 03:01:41;;;;;;;;;;;;;;;26.82;49.06;99422.78;5054306;28;19909;-78
2023/07/19 03:04:07;;;;;;;;;;;;;;;26.72;48.43;99418.25;5054156;28;19912;-78
2023/07/19 03:06:32;;;;;;;;;;;;;;;26.64;48.61;99424.28;5036318;28;19915;-79
2023/07/19 03:08:57;;;;;;;;;;;;;;;26.58;49.17;99418.13;5036036;28;19916;-78
2023/07/19 03:11:23;;;;;;;;;;;;;;;26.51;49.28;99417.66;5054229;28;19908;-78
2023/07/19 03:13:49;;;;;;;;;;;;;;;26.50;48.67;99410.63;5054399;28;19909;-77
2023/07/19 03:16:14;;;;;;;;;;;;;;;26.48;49.30;99414.69;5036337;28;19914;-79
2023/07/19 03:18:39;;;;;;;;;;;;;;;26.47;48.69;99418.50;5053983;28;20396;-78
2023/07/19 03:21:05;;;;;;;;;;;;;;;26.46;48.82;99419.59;5054069;28;19991;-78
2023/07/19 03:23:30;;;;;;;;;;;;;;;26.47;49.68;99421.22;5054054;28;19916;-79
2023/07/19 03:25:57;;;;;;;;;;;;;;;26.45;49.34;99418.78;5053644;28;20304;-78
2023/07/19 03:28:23;;;;;;;;;;;;;;;26.52;48.89;99419.25;5035881;28;19915;-79
2023/07/19 03:30:49;;;;;;;;;;;;;;;26.58;49.80;99423.53;5053604;28;19911;-78
2023/07/19 03:33:14;;;;;;;;;;;;;;;26.63;49.06;99421.88;5052843;28;19999;-79
2023/07/19 03:35:40;;;;;;;;;;;;;;;26.65;49.87;99422.38;5053688;28;19909;-79
2023/07/19 03:38:05;;;;;;;;;;;;;;;26.63;49.32;99419.16;5035636;28;19908;-78
2023/07/19 03:40:30;;;;;;;;;;;;;;;26.65;49.68;99420.47;5053369;28;19922;-78
2023/07/19 03:42:56;;;;;;;;;;;;;;;26.63;50.21;99425.38;5053574;28;19912;-78
2023/07/19 03:45:21;;;;;;;;;;;;;;;26.66;50.06;99429.41;5035254;28;19999;-78
2023/07/19 03:47:46;;;;;;;;;;;;;;;26.71;49.27;99435.59;5052999;28;20412;-78
2023/07/19 03:50:11;;;;;;;;;;;;;;;26.75;48.56;99431.22;5053127;28;19908;-78
2023/07/19 03:52:37;;;;;;;;;;;;;;;26.76;49.84;99442.88;5053109;28;20447;-78
2023/07/19 03:55:03;;;;;;;;;;;;;;;26.76;49.62;99440.19;5053276;28;19916;-78
2023/07/19 03:57:28;;;;;;;;;;;;;;;26.71;49.48;99434.78;5053061;28;19965;-77
2023/07/19 03:59:54;;;;;;;;;;;;;;;26.68;49.31;99436.16;5053204;28;19931;-78
2023/07/19 04:02:19;;;;;;;;;;;;;;;26.68;49.22;99428.03;5053014;28;19914;-78
2023/07/19 04:04:44;;;;;;;;;;;;;;;26.69;48.69;99428.84;5053035;28;19909;-78
2023/07/19 04:07:10;;;;;;;;;;;;;;;26.66;48.89;99424.81;5035021;28;20382;-77
2023/07/19 04:09:35;;;;;;;;;;;;;;;26.69;48.11;99432.34;5052911;28;19909;-77
2023/07/19 04:12:00;;;;;;;;;;;;;;;26.71;48.50;99426.66;5052848;28;19915;-78
2023/07/19 04:14:26;;;;;;;;;;;;;;;26.71;48.82;99415.81;5052786;28;20007;-79
2023/07/19 04:16:51;;;;;;;;;;;;;;;26.70;49.34;99430.47;5052880;28;19909;-78
2023/07/19 04:19:16;;;;;;;;;;;;;;;26.69;48.79;99418.00;5052721;28;20369;-78
2023/07/19 04:21:41;;;;;;;;;;;;;;;26.69;48.79;99418.81;5034809;28;19978;-78
2023/07/19 04:24:07;;;;;;;;;;;;;;;26.71;48.98;99426.66;5052705;28;19909;-79
2023/07/19 04:26:33;;;;;;;;;;;;;;;26.77;49.17;99420.13;5035635;28;19919;-79
2023/07/19 04:28:58;;;;;;;;;;;;;;;26.80;48.77;99424.97;5052830;28;19908;-79
2023/07/19 04:31:23;;;;;;;;;;;;;;;26.84;48.15;99415.97;5052484;28;20297;-78
2023/07/19 04:33:48;;;;;;;;;;;;;;;26.91;48.54;99429.97;5052495;28;19908;-78
2023/07/19 04:36:14;;;;;;;;;;;;;;;26.97;48.02;99419.88;5052707;28;20015;-79
2023/07/19 04:38:40;;;;;;;;;;;;;;;27.02;48.13;99414.44;5052620;28;19963;-77
2023/07/19 04:41:06;;;;;;;;;;;;;;;27.07;47.93;99417.09;5052167;28;19947;-77
2023/07/19 04:43:31;;;;;;;;;;;;;;;27.08;47.94;99415.19;5034283;28;19909;-77
2023/07/19 04:45:56;;;;;;;;;;;;;;;27.12;48.64;99410.81;5052036;28;19916;-78
2023/07/19 04:48:21;;;;;;;;;;;;;;;27.14;47.81;99408.59;5052107;28;19915;-79
2023/07/19 04:50:51;;;;;;;;;;;;;;;27.18;47.99;99409.63;5052353;28;19913;-77
2023/07/19 04:53:16;;;;;;;;;;;;;;;27.23;47.84;99407.66;5052245;28;19974;-79
2023/07/19 04:55:42;;;;;;;;;;;;;;;27.30;47.54;99414.63;5052664;28;20348;-78
2023/07/19 04:58:07;;;;;;;;;;;;;;;27.35;47.59;99409.97;5035192;28;19964;-80
2023/07/19 05:00:33;;;;;;;;;;;;;;;27.43;47.30;99406.59;5055491;28;20003;-80
2023/07/19 05:02:58;;;;;;;;;;;;;;;27.51;47.23;99416.81;5053310;28;19909;-78
2023/07/19 05:05:23;;;;;;;;;;;;;;;27.59;46.96;99417.25;5034154;28;20400;-78
2023/07/19 05:07:48;;;;;;;;;;;;;;;27.64;47.55;99415.31;5052112;28;19944;-78
2023/07/19 05:10:14;;;;;;;;;;;;;;;27.64;46.59;99411.78;5034428;28;20373;-79
2023/07/19 05:12:39;;;;;;;;;;;;;;;27.64;46.43;99409.88;5051976;28;19909;-77
2023/07/19 05:15:05;;;;;;;;;;;;;;;27.67;46.78;99413.91;5034057;28;19909;-78
2023/07/19 05:17:30;;;;;;;;;;;;;;;27.70;46.82;99413.31;5051859;28;19916;-78
2023/07/19 05:19:55;;;;;;;;;;;;;;;27.79;46.47;99411.56;5052128;28;19962;-78
2023/07/19 05:22:20;;;;;;;;;;;;;;;27.87;46.27;99410.09;5051679;28;20385;-78
2023/07/19 05:24:46;;;;;;;;;;;;;;;27.92;46.19;99410.81;5033782;28;20381;-78
2023/07/19 05:27:15;;;;;;;;;;;;;;;27.98;45.97;99406.91;5051505;28;19916;-78
2023/07/19 05:29:40;;;;;;;;;;;;;;;28.03;45.77;99408.75;5051670;28;20388;-78
2023/07/19 05:32:06;;;;;;;;;;;;;;;28.08;45.44;99408.66;5051438;28;19912;-78
2023/07/19 05:34:32;;;;;;;;;;;;;;;28.17;45.19;99401.44;5051380;28;20363;-78
2023/07/19 05:36:57;;;;;;;;;;;;;;;28.23;44.95;99411.16;5051369;28;19952;-80
2023/07/19 05:39:22;;;;;;;;;;;;;;;28.31;44.81;99405.06;5051586;28;19912;-78
2023/07/19 05:41:47;;;;;;;;;;;;;;;28.38;44.40;99405.47;5051558;28;19992;-78
2023/07/19 05:44:13;;;;;;;;;;;;;;;28.43;44.29;99410.00;5051607;28;20397;-78
2023/07/19 05:46:38;;;;;;;;;;;;;;;28.51;44.29;99408.53;5051710;28;19995;-78
2023/07/19 05:49:03;;;;;;;;;;;;;;;28.59;44.03;99397.78;5051381;28;19920;-79
2023/07/19 05:51:29;;;;;;;;;;;;;;;28.66;43.41;99400.09;5051455;28;19930;-78
2023/07/19 05:53:54;;;;;;;;;;;;;;;28.71;43.61;99394.56;5051233;28;19916;-79
2023/07/19 05:56:20;;;;;;;;;;;;;;;28.77;43.25;99387.91;5051944;28;19916;-77
2023/07/19 05:58:45;;;;;;;;;;;;;;;28.84;43.30;99395.69;5052979;28;19927;-78
2023/07/19 06:01:14;;;;;;;;;;;;;;;28.89;42.84;99392.88;5053413;28;20389;-78
2023/07/19 06:03:39;;;;;;;;;;;;;;;28.91;42.81;99396.91;5055216;28;19915;-77
2023/07/19 06:06:05;;;;;;;;;;;;;;;28.96;43.14;99399.53;5039519;28;19916;-78
2023/07/19 06:08:31;;;;;;;;;;;;;;;29.02;42.83;99398.34;5054397;28;19920;-79
2023/07/19 06:10:56;;;;;;;;;;;;;;;29.08;42.65;99402.56;5054959;28;19956;-77
2023/07/19 06:13:21;;;;;;;;;;;;;;;29.16;42.91;99400.25;5045859;28;20003;-77
2023/07/19 06:15:47;;;;;;;;;;;;;;;29.21;42.74;99395.50;5035231;28;19915;-77
2023/07/19 06:18:13;;;;;;;;;;;;;;;29.27;42.35;99399.72;5035255;28;19916;-77
2023/07/19 06:20:38;;;;;;;;;;;;;;;29.30;42.65;99396.38;5017249;28;19909;-78
2023/07/19 06:23:03;;;;;;;;;;;;;;;29.33;42.40;99393.06;5034938;28;19909;-79
2023/07/19 06:25:29;;;;;;;;;;;;;;;29.40;41.94;99395.34;5043817;28;20005;-78
2023/07/19 06:27:54;;;;;;;;;;;;;;;29.45;41.31;99389.03;5036151;28;19909;-79
2023/07/19 06:30:19;;;;;;;;;;;;;;;29.52;41.98;99401.09;5052833;28;19978;-76
2023/07/19 06:32:45;;;;;;;;;;;;;;;29.57;41.46;99400.97;5031617;28;19912;-77
2023/07/19 06:35:10;;;;;;;;;;;;;;;29.62;41.29;99398.16;5035385;28;19912;-78
2023/07/19 06:37:35;;;;;;;;;;;;;;;29.69;41.10;99403.97;5035146;28;19913;-76
2023/07/19 06:40:03;;;;;;;;;;;;;;;29.75;41.08;99396.53;5052042;28;19995;-79
2023/07/19 06:42:29;;;;;;;;;;;;;;;29.84;40.95;99393.88;5053156;28;19917;-78
2023/07/19 06:44:54;;;;;;;;;;;;;;;29.89;40.26;99389.09;5053007;28;19913;-78
2023/07/19 06:47:19;;;;;;;;;;;;;;;29.95;40.40;99389.78;5053252;28;19916;-77
2023/07/19 06:49:44;;;;;;;;;;;;;;;30.01;39.28;99391.25;5034557;28;19912;-77
2023/07/19 06:52:10;;;;;;;;;;;;;;;30.06;39.76;99391.16;5054838;28;19974;-79
2023/07/19 06:54:35;;;;;;;;;;;;;;;30.12;38.40;99392.66;5053202;28;20404;-78
2023/07/19 06:57:00;;;;;;;;;;;;;;;30.19;39.67;99386.75;5053366;28;19956;-78
2023/07/19 06:59:27;;;;;;;;;;;;;;;30.23;39.57;99385.03;5054081;28;20442;-78
2023/07/19 07:01:52;;;;;;;;;;;;;;;30.27;39.16;99386.81;5048144;28;20456;-77
2023/07/19 07:04:17;;;;;;;;;;;;;;;30.30;39.28;99377.22;5042799;28;20011;-79
2023/07/19 07:06:43;;;;;;;;;;;;;;;30.38;38.82;99375.66;5048452;28;20313;-79
2023/07/19 07:09:08;;;;;;;;;;;;;;;30.43;39.17;99379.03;5051385;28;19912;-77
2023/07/19 07:11:33;;;;;;;;;;;;;;;30.48;38.65;99378.94;5045739;28;19908;-78
2023/07/19 07:13:58;;;;;;;;;;;;;;;30.53;39.07;99384.25;5049191;28;19928;-79
2023/07/19 07:16:24;;;;;;;;;;;;;;;30.55;38.95;99384.75;5053661;28;19930;-79
2023/07/19 07:18:49;;;;;;;;;;;;;;;30.66;39.20;99374.41;5052797;28;19916;-78
2023/07/19 07:21:15;;;;;;;;;;;;;;;30.73;39.29;99384.84;5043219;28;19980;-78
2023/07/19 07:23:40;;;;;;;;;;;;;;;30.81;38.94;99386.78;5044845;28;19912;-77
2023/07/19 07:26:05;;;;;;;;;;;;;;;30.86;38.66;99378.47;5039627;28;19923;-79
2023/07/19 07:28:30;;;;;;;;;;;;;;;30.88;38.24;99371.56;5047160;28;19999;-80
2023/07/19 07:30:56;;;;;;;;;;;;;;;30.95;38.52;99371.91;5052204;28;19995;-78
2023/07/19 07:33:21;;;;;;;;;;;;;;;31.00;38.72;99379.16;5052529;28;20306;-80
2023/07/19 07:35:46;;;;;;;;;;;;;;;31.05;38.30;99375.47;5050249;28;19915;-77
2023/07/19 07:38:12;;;;;;;;;;;;;;;31.04;36.33;99371.13;5053679;28;19909;-77
2023/07/19 07:40:37;;;;;;;;;;;;;;;31.09;37.96;99369.06;5051888;28;19920;-77
2023/07/19 07:43:02;;;;;;;;;;;;;;;31.14;38.31;99373.56;5035688;28;19908;-79
2023/07/19 07:45:28;;;;;;;;;;;;;;;31.19;37.78;99366.06;5053253;28;19909;-79
2023/07/19 07:47:53;;;;;;;;;;;;;;;31.27;37.31;99372.69;5034336;28;19912;-79
2023/07/19 07:50:19;;;;;;;;;;;;;;;31.36;37.44;99367.22;5052375;28;19963;-79
2023/07/19 07:52:44;;;;;;;;;;;;;;;31.45;36.91;99363.38;5053341;28;20387;-77
2023/07/19 07:55:10;;;;;;;;;;;;;;;31.54;37.39;99360.66;5033749;28;19920;-77
2023/07/19 07:57:37;;;;;;;;;;;;;;;31.64;37.70;99362.25;5035976;28;19913;-78
2023/07/19 08:00:05;;;;;;;;;;;;;;;31.68;37.73;99355.84;5028740;28;20310;-78
2023/07/19 08:02:31;;;;;;;;;;;;;;;31.74;37.54;99354.56;5053555;28;19912;-78
2023/07/19 08:04:56;;;;;;;;;;;;;;;31.78;36.98;99361.00;5051165;28;20413;-78
2023/07/19 08:07:21;;;;;;;;;;;;;;;31.83;36.81;99354.56;5053108;28;19916;-79
2023/07/19 08:09:46;;;;;;;;;;;;;;;31.89;36.40;99356.00;5035821;28;19939;-78
2023/07/19 08:12:13;;;;;;;;;;;;;;;31.94;36.12;99353.09;5040153;28;19979;-79
2023/07/19 08:14:40;;;;;;;;;;;;;;;31.97;36.80;99357.94;5022614;28;20456;-79
2023/07/19 08:17:05;;;;;;;;;;;;;;;32.05;36.58;99354.41;5039018;28;19956;-78
2023/07/19 08:19:30;;;;;;;;;;;;;;;32.14;36.21;99354.38;5033049;28;19946;-76
2023/07/19 08:22:02;;;;;;;;;;;;;;;32.22;36.17;99346.16;5033001;28;19967;-77
2023/07/19 08:24:27;;;;;;;;;;;;;;;32.26;35.55;99354.53;5027201;28;19912;-79
2023/07/19 08:26:52;;;;;;;;;;;;;;;32.32;35.59;99355.16;5017714;28;19975;-78
2023/07/19 08:29:18;;;;;;;;;;;;;;;32.42;36.00;99352.84;5034577;28;19940;-79
2023/07/19 08:31:43;;;;;;;;;;;;;;;32.50;35.31;99349.28;5042501;28;20386;-78
2023/07/19 08:34:08;;;;;;;;;;;;;;;32.62;35.85;99348.59;5046833;28;19962;-79
2023/07/19 08:36:33;;;;;;;;;;;;;;;32.75;35.35;99344.06;5031600;28;19913;-78
2023/07/19 08:38:59;;;;;;;;;;;;;;;32.84;35.29;99345.66;5047494;28;19909;-78
2023/07/19 08:41:27;;;;;;;;;;;;;;;32.94;35.29;99341.72;5053106;28;20375;-79
2023/07/19 08:43:54;;;;;;;;;;;;;;;33.03;34.94;99338.94;5049346;28;20304;-79
2023/07/19 08:46:19;;;;;;;;;;;;;;;33.06;34.57;99338.28;5033443;28;19919;-78
2023/07/19 08:48:45;;;;;;;;;;;;;;;33.17;35.11;99337.53;5051355;28;19999;-77
2023/07/19 08:51:12;;;;;;;;;;;;;;;33.23;33.64;99334.59;5050726;28;19908;-78
2023/07/19 08:53:37;;;;;;;;;;;;;;;33.36;34.98;99334.38;5051211;28;19920;-79
2023/07/19 08:56:03;;;;;;;;;;;;;;;33.45;34.91;99334.34;5051380;28;20378;-78
2023/07/19 08:58:28;;;;;;;;;;;;;;;33.53;34.42;99333.47;5033973;28;19917;-77
2023/07/19 09:00:54;;;;;;;;;;;;;;;33.67;34.47;99324.94;5051377;28;19909;-78
2023/07/19 09:03:19;;;;;;;;;;;;;;;33.83;34.22;99325.94;5051693;28;19962;-79
2023/07/19 09:05:45;;;;;;;;;;;;;;;33.94;34.32;99327.13;5033334;28;20373;-77
2023/07/19 09:08:11;;;;;;;;;;;;;;;34.06;33.59;99324.41;5051692;28;19916;-78
2023/07/19 09:10:37;;;;;;;;;;;;;;;34.19;32.47;99318.97;5049382;28;19913;-77
2023/07/19 09:13:05;;;;;;;;;;;;;;;34.32;32.37;99318.69;5051350;28;20329;-79
2023/07/19 09:15:33;;;;;;;;;;;;;;;34.49;32.52;99314.13;5031467;28;20390;-78
2023/07/19 09:18:00;;;;;;;;;;;;;;;34.59;32.14;99310.94;5050480;28;19924;-78
2023/07/19 09:20:26;;;;;;;;;;;;;;;34.74;32.72;99305.53;5049796;28;19920;-78
2023/07/19 09:22:51;;;;;;;;;;;;;;;34.90;31.13;99296.63;5051427;28;20355;-78
2023/07/19 09:25:16;;;;;;;;;;;;;;;35.06;30.47;99303.03;5047662;28;19929;-77
2023/07/19 09:27:43;;;;;;;;;;;;;;;35.23;30.36;99294.53;5042308;28;19924;-78
2023/07/19 09:30:09;;;;;;;;;;;;;;;35.23;29.81;99297.28;5049048;28;19919;-79
2023/07/19 09:32:35;;;;;;;;;;;;;;;35.40;29.97;99303.66;5049087;28;20704;-78
2023/07/19 09:35:01;;;;;;;;;;;;;;;35.58;30.85;99296.72;5047910;28;19912;-77
2023/07/19 09:37:26;;;;;;;;;;;;;;;35.74;29.70;99292.06;5051560;28;19919;-79
2023/07/19 09:39:54;;;;;;;;;;;;;;;36.00;29.97;99288.84;5049514;28;20360;-78
2023/07/19 09:42:20;;;;;;;;;;;;;;;36.16;29.56;99286.13;5051257;28;19908;-79
2023/07/19 09:44:45;;;;;;;;;;;;;;;36.17;30.65;99279.47;5046675;28;19919;-79
2023/07/19 09:47:11;;;;;;;;;;;;;;;36.24;29.00;99276.88;5051096;28;19913;-78
2023/07/19 09:49:36;;;;;;;;;;;;;;;36.47;29.89;99274.34;5038259;28;19913;-79
2023/07/19 09:52:02;;;;;;;;;;;;;;;36.64;28.38;99271.22;5037479;28;19920;-79
2023/07/19 09:54:30;;;;;;;;;;;;;;;36.81;28.11;99275.56;5050098;28;19967;-77
2023/07/19 09:56:55;;;;;;;;;;;;;;;37.02;28.11;99259.50;5033434;28;19908;-79
2023/07/19 09:59:24;;;;;;;;;;;;;;;37.16;27.48;99262.56;5046991;28;19924;-79
2023/07/19 10:01:49;;;;;;;;;;;;;;;37.29;28.27;99256.94;5031527;28;19916;-79
2023/07/19 10:04:22;;;;;;;;;;;;;;;37.42;25.41;99253.69;5013656;28;19909;-79
2023/07/19 10:06:48;;;;;;;;;;;;;;;37.57;25.74;99246.47;5031350;28;20087;-79
2023/07/19 10:09:22;;;;;;;;;;;;;;;37.73;24.59;99243.63;5031394;28;19944;-79
2023/07/19 10:11:49;;;;;;;;;;;;;;;37.82;24.39;99247.75;5048325;28;19982;-78
2023/07/19 10:14:19;;;;;;;;;;;;;;;37.90;26.08;99234.88;5051257;28;19909;-78
2023/07/19 10:16:48;;;;;;;;;;;;;;;37.91;27.50;99243.97;5051121;28;19916;-78
2023/07/19 10:19:14;;;;;;;;;;;;;;;37.98;25.95;99233.06;5051100;28;19915;-78
2023/07/19 10:22:00;;;;;;;;;;;;;;;38.25;25.14;99243.00;5030733;28;19991;-78
2023/07/19 10:24:25;;;;;;;;;;;;;;;38.50;25.98;99242.56;5031450;28;19967;-79
2023/07/19 10:26:50;;;;;;;;;;;;;;;38.71;25.64;99240.19;5031186;28;19921;-78
2023/07/19 10:29:18;;;;;;;;;;;;;;;38.81;23.82;99236.75;5031044;28;19916;-79
2023/07/19 10:31:44;;;;;;;;;;;;;;;38.79;23.90;99236.34;5031149;28;19962;-78
2023/07/19 10:34:09;;;;;;;;;;;;;;;38.79;25.24;99233.59;5030980;28;19912;-78
2023/07/19 10:36:44;;;;;;;;;;;;;;;38.95;24.14;99223.13;5013356;28;20294;-77
2023/07/19 10:39:09;;;;;;;;;;;;;;;39.08;23.81;99220.97;5013217;28;19951;-79
2023/07/19 10:41:34;;;;;;;;;;;;;;;39.30;24.01;99230.28;5031231;28;19960;-79
2023/07/19 10:44:00;;;;;;;;;;;;;;;39.45;25.08;99221.00;5033815;28;19916;-79
2023/07/19 10:46:28;;;;;;;;;;;;;;;39.36;25.38;99228.78;5017885;28;19913;-78
2023/07/19 10:48:53;;;;;;;;;;;;;;;39.38;24.35;99218.94;5054374;28;19908;-79
2023/07/19 10:51:20;;;;;;;;;;;;;;;39.48;24.12;99202.88;5054378;28;20472;-77
2023/07/19 10:53:56;;;;;;;;;;;;;;;39.59;22.53;99209.31;5036697;28;19916;-77
2023/07/19 10:56:21;;;;;;;;;;;;;;;39.72;23.81;99205.91;5054414;28;19909;-77
2023/07/19 10:58:47;;;;;;;;;;;;;;;39.93;22.74;99218.34;5053861;28;19931;-78
2023/07/19 11:01:13;;;;;;;;;;;;;;;40.03;21.48;99201.03;5036766;28;19955;-77
2023/07/19 11:03:38;;;;;;;;;;;;;;;40.17;23.16;99203.94;5054385;28;19909;-77
2023/07/19 11:06:06;;;;;;;;;;;;;;;40.31;22.72;99198.50;5048258;28;19967;-77
2023/07/19 11:08:32;;;;;;;;;;;;;;;40.39;21.59;99198.56;5045448;28;20361;-78
2023/07/19 11:10:57;;;;;;;;;;;;;;;40.45;21.93;99200.59;5033983;28;19909;-78
2023/07/19 11:13:25;;;;;;;;;;;;;;;40.46;22.90;99199.41;5036124;28;19991;-77
2023/07/19 11:15:51;;;;;;;;;;;;;;;40.55;21.65;99197.09;5054282;28;19909;-77
2023/07/19 11:18:30;;;;;;;;;;;;;;;40.63;21.53;99197.91;5054211;28;19961;-78
2023/07/19 11:20:58;;;;;;;;;;;;;;;40.62;23.42;99191.59;5036411;28;19909;-76
2023/07/19 11:23:24;;;;;;;;;;;;;;;40.65;22.05;99187.25;5054658;28;19908;-77
2023/07/19 11:25:50;;;;;;;;;;;;;;;40.61;22.09;99181.69;5057095;28;19923;-78
2023/07/19 11:28:35;;;;;;;;;;;;;;;40.64;21.17;99180.91;5043502;28;19942;-79
2023/07/19 11:31:02;;;;;;;;;;;;;;;40.81;23.07;99187.75;5036891;28;19908;-77
2023/07/19 11:33:27;;;;;;;;;;;;;;;40.87;20.01;99177.88;5037566;28;20394;-78
2023/07/19 11:35:53;;;;;;;;;;;;;;;40.78;20.58;99171.91;5033294;28;19924;-78
2023/07/19 11:38:18;;;;;;;;;;;;;;;41.02;20.14;99173.22;5033564;28;19916;-78
2023/07/19 11:40:43;;;;;;;;;;;;;;;41.14;19.54;99170.06;5043550;28;19908;-78
2023/07/19 11:43:08;;;;;;;;;;;;;;;41.32;19.75;99164.59;5043563;28;19916;-79
2023/07/19 11:45:34;;;;;;;;;;;;;;;41.49;20.65;99157.50;5052210;28;19908;-77
2023/07/19 11:48:00;;;;;;;;;;;;;;;41.66;20.57;99150.44;5053559;28;19917;-77
2023/07/19 11:50:25;;;;;;;;;;;;;;;41.81;19.77;99152.00;5053422;28;19915;-77
2023/07/19 11:52:55;;;;;;;;;;;;;;;41.89;19.82;99154.38;5056788;28;19909;-79
2023/07/19 11:55:21;;;;;;;;;;;;;;;41.89;21.53;99139.72;5054750;28;19935;-79
2023/07/19 11:57:51;;;;;;;;;;;;;;;41.98;20.53;99144.84;5049679;28;19917;-78
2023/07/19 12:00:17;;;;;;;;;;;;;;;41.84;19.84;99140.13;5051860;28;19978;-78
2023/07/19 12:02:46;;;;;;;;;;;;;;;41.76;20.73;99127.44;5035358;28;19908;-77
2023/07/19 12:05:12;;;;;;;;;;;;;;;41.63;20.75;99123.50;5052584;28;19948;-78
2023/07/19 12:07:37;;;;;;;;;;;;;;;41.60;19.55;99130.56;5050715;28;19924;-79
2023/07/19 12:10:04;;;;;;;;;;;;;;;41.71;19.52;99114.78;5051053;28;20286;-77
2023/07/19 12:12:33;;;;;;;;;;;;;;;41.88;20.86;99116.72;5051892;28;19920;-77
2023/07/19 12:15:04;;;;;;;;;;;;;;;42.08;20.30;99117.13;5049899;28;19923;-77
2023/07/19 12:17:31;;;;;;;;;;;;;;;42.22;19.07;99129.38;5052759;28;20437;-78
2023/07/19 12:19:56;;;;;;;;;;;;;;;42.29;19.94;99118.25;5031175;28;19913;-78
2023/07/19 12:22:21;;;;;;;;;;;;;;;42.43;17.59;99121.00;5023649;28;19971;-77
2023/07/19 12:24:47;;;;;;;;;;;;;;;42.26;17.73;99105.97;5036542;28;19909;-79
2023/07/19 12:27:15;;;;;;;;;;;;;;;42.24;18.20;99100.03;5039106;28;20378;-80
2023/07/19 12:29:40;;;;;;;;;;;;;;;42.34;19.00;99101.19;5014756;28;19983;-78
2023/07/19 12:32:06;;;;;;;;;;;;;;;42.45;18.82;99096.44;5027551;28;20007;-78
2023/07/19 12:34:31;;;;;;;;;;;;;;;42.45;18.95;99099.22;5043905;28;19913;-78
2023/07/19 12:36:56;;;;;;;;;;;;;;;42.43;18.87;99098.81;5050386;28;19916;-77
2023/07/19 12:39:22;;;;;;;;;;;;;;;42.50;17.73;99096.03;5050333;28;19912;-77
2023/07/19 12:41:48;;;;;;;;;;;;;;;42.52;19.21;99096.41;5051551;28;19920;-76